Terminal Aerodrome Forecast
Issued by NWS Indianapolis, IN

Home | Current Version | Previous Version | Text Only | Print | Product List | Glossary On
Versions: 1 2 3 4 5 6 7 8 9 10 11 12 13 14 15 16 17 18 19 20 21 22 23 24 25 26 27 28 29
312
FTUS43 KIND 101720
TAFIND
TAF
KIND 101720Z 1018/1124 25005KT P6SM BKN100
     FM102300 18004KT P6SM BKN090
     FM111300 15008KT P6SM OVC060
     FM111800 17009KT P6SM -FZRA OVC070
     FM112000 18010KT 6SM -RA OVC040
     FM112100 18010KT 6SM -RA BR OVC025
     FM112300 19010KT 5SM -RA BR OVC015=

USA.gov is the U.S. government's official web portal to all federal, state and local government web resources and services.